createdAt,value
2022-11-13T00:03:42.616Z,101711.55
2022-11-13T00:08:46.538Z,101715.04
2022-11-13T00:13:49.958Z,101711.30
2022-11-13T00:18:52.862Z,101711.95
2022-11-13T00:23:56.599Z,101709.57
2022-11-13T00:29:02.362Z,101711.71
2022-11-13T00:34:26.011Z,101714.54
2022-11-13T00:39:28.646Z,101719.31
2022-11-13T00:44:31.857Z,101715.27
2022-11-13T00:49:34.765Z,101712.34
2022-11-13T00:54:37.666Z,101707.50
2022-11-13T00:59:40.572Z,101711.77
2022-11-13T01:04:43.577Z,101704.88
2022-11-13T01:09:50.988Z,101699.14
2022-11-13T01:14:53.992Z,101698.27
2022-11-13T01:19:56.898Z,101694.83
2022-11-13T01:24:59.800Z,101692.73
2022-11-13T01:30:02.915Z,101693.67
2022-11-13T01:35:06.811Z,101694.98
2022-11-13T01:40:12.554Z,101686.46
2022-11-13T01:45:53.814Z,101680.89
2022-11-13T01:50:57.024Z,101680.80
2022-11-13T01:55:59.929Z,101680.09
2022-11-13T02:01:03.147Z,101670.52
2022-11-13T02:06:07.037Z,101670.06
2022-11-13T02:11:10.075Z,101673.39
2022-11-13T02:16:14.761Z,101665.69
2022-11-13T02:21:41.440Z,101671.30
2022-11-13T02:26:45.247Z,101671.64
2022-11-13T02:31:48.112Z,101670.46
2022-11-13T02:36:51.424Z,101667.10
2022-11-13T02:41:54.737Z,101664.83
2022-11-13T02:46:57.654Z,101666.12
2022-11-13T02:52:00.755Z,101664.50
2022-11-13T02:57:03.864Z,101664.64
2022-11-13T03:02:06.833Z,101663.60
2022-11-13T03:07:10.010Z,101662.45
2022-11-13T03:12:13.288Z,101663.94
2022-11-13T03:17:16.193Z,101660.98
2022-11-13T03:22:19.100Z,101665.35
2022-11-13T03:27:22.493Z,101670.38
2022-11-13T03:32:25.624Z,101673.61
2022-11-13T03:37:28.534Z,101673.48
2022-11-13T03:42:31.738Z,101680.64
2022-11-13T03:47:34.641Z,101677.52
2022-11-13T03:52:37.539Z,101674.52
2022-11-13T03:57:40.450Z,101673.98
2022-11-13T04:02:43.356Z,101670.40
2022-11-13T04:07:46.258Z,101675.16
2022-11-13T04:12:49.163Z,101675.89
2022-11-13T04:17:52.066Z,101678.84
2022-11-13T04:22:56.375Z,101676.11
2022-11-13T04:27:59.308Z,101679.64
2022-11-13T04:33:02.214Z,101682.46
2022-11-13T04:38:05.322Z,101684.94
2022-11-13T04:43:08.230Z,101692.19
2022-11-13T04:48:11.134Z,101692.93
2022-11-13T04:53:14.034Z,101693.53
2022-11-13T04:58:16.943Z,101695.48
2022-11-13T05:03:19.740Z,101695.45
2022-11-13T05:08:23.464Z,101693.52
2022-11-13T05:13:26.753Z,101697.86
2022-11-13T05:18:30.440Z,101695.28
2022-11-13T05:23:34.020Z,101695.13
2022-11-13T05:28:37.410Z,101697.59
2022-11-13T05:33:41.332Z,101694.71
2022-11-13T05:38:45.297Z,101699.67
2022-11-13T05:43:49.093Z,101705.13
2022-11-13T05:48:55.400Z,101714.02
2022-11-13T05:53:58.992Z,101714.98
2022-11-13T05:59:03.472Z,101716.13
2022-11-13T06:04:07.901Z,101722.66
2022-11-13T06:09:14.696Z,101720.13
2022-11-13T06:14:17.703Z,101719.31
2022-11-13T06:19:20.814Z,101718.87
2022-11-13T06:24:23.818Z,101716.64
2022-11-13T06:29:26.829Z,101717.73
2022-11-13T06:34:29.729Z,101710.48
2022-11-13T06:39:32.634Z,101711.93
2022-11-13T06:44:35.539Z,101708.98
2022-11-13T06:49:38.441Z,101709.08
2022-11-13T06:54:41.347Z,101705.81
2022-11-13T06:59:44.156Z,101704.59
2022-11-13T07:04:46.952Z,101704.69
2022-11-13T07:09:49.956Z,101703.85
2022-11-13T07:14:52.762Z,101713.73
2022-11-13T07:19:56.279Z,101714.05
2022-11-13T07:24:59.183Z,101715.17
2022-11-13T07:30:03.970Z,101723.13
2022-11-13T07:35:07.835Z,101723.95
2022-11-13T07:40:12.421Z,101726.40
2022-11-13T07:45:15.408Z,101722.84
2022-11-13T07:50:18.312Z,101722.14
2022-11-13T07:55:21.214Z,101721.67
2022-11-13T08:00:28.213Z,101726.12
2022-11-13T08:05:31.328Z,101728.35
2022-11-13T08:10:34.232Z,101733.48
2022-11-13T08:15:37.440Z,101741.07
2022-11-13T08:20:41.060Z,101741.02
2022-11-13T08:25:43.967Z,101741.06
2022-11-13T08:30:46.971Z,101740.97
2022-11-13T08:35:57.351Z,101735.54
2022-11-13T08:41:07.216Z,101732.24
2022-11-13T08:46:11.760Z,101732.89
2022-11-13T08:51:14.669Z,101725.68
2022-11-13T08:56:17.571Z,101725.03
2022-11-13T09:01:23.456Z,101730.23
2022-11-13T09:06:26.347Z,101735.89
2022-11-13T09:11:29.254Z,101732.46
2022-11-13T09:16:32.163Z,101733.23
2022-11-13T09:21:35.062Z,101732.02
2022-11-13T09:26:38.274Z,101731.75
2022-11-13T09:31:41.506Z,101732.75
2022-11-13T09:36:44.701Z,101719.91
2022-11-13T09:41:52.620Z,101721.92
2022-11-13T09:47:13.120Z,101726.42
2022-11-13T09:52:21.634Z,101724.98
2022-11-13T09:57:43.108Z,101720.46
2022-11-13T10:03:10.872Z,101711.32
2022-11-13T10:08:18.001Z,101704.20
2022-11-13T10:13:45.943Z,101707.59
2022-11-13T10:18:50.741Z,101714.55
2022-11-13T10:23:57.131Z,101717.65
2022-11-13T10:29:12.843Z,101710.11
2022-11-13T10:34:18.100Z,101711.21
2022-11-13T10:39:20.998Z,101715.02
2022-11-13T10:44:35.578Z,101710.84
2022-11-13T10:49:38.480Z,101712.81
2022-11-13T10:54:41.384Z,101712.33
2022-11-13T10:59:45.373Z,101713.49
2022-11-13T11:04:48.680Z,101713.27
2022-11-13T11:09:52.244Z,101705.30
2022-11-13T11:15:00.887Z,101698.69
2022-11-13T11:20:14.538Z,101700.16
2022-11-13T11:25:41.815Z,101695.91
2022-11-13T11:30:51.712Z,101692.55
2022-11-13T11:36:33.805Z,101695.02
2022-11-13T11:41:46.036Z,101695.84
2022-11-13T11:46:48.932Z,101693.45
2022-11-13T11:52:00.440Z,101687.39
2022-11-13T11:57:34.268Z,101685.81
2022-11-13T12:02:56.187Z,101685.96
2022-11-13T12:08:01.991Z,101673.95
2022-11-13T12:13:25.477Z,101669.31
2022-11-13T12:18:38.929Z,101662.77
2022-11-13T12:24:16.145Z,101658.90
2022-11-13T12:29:51.606Z,101653.33
2022-11-13T12:35:00.656Z,101646.72
2022-11-13T12:40:08.216Z,101644.81
2022-11-13T12:45:24.800Z,101645.66
2022-11-13T12:50:32.895Z,101646.20
2022-11-13T12:55:39.250Z,101639.19
2022-11-13T13:01:15.852Z,101633.99
2022-11-13T13:06:37.626Z,101629.29
2022-11-13T13:12:07.078Z,101629.96
2022-11-13T13:17:18.271Z,101626.36
2022-11-13T13:22:34.081Z,101620.44
2022-11-13T13:27:39.643Z,101617.48
2022-11-13T13:32:51.772Z,101621.55
2022-11-13T13:38:16.687Z,101622.77
2022-11-13T13:44:08.330Z,101625.27
2022-11-13T13:49:17.077Z,101629.48
2022-11-13T13:54:23.868Z,101633.31
2022-11-13T13:59:36.705Z,101632.02
2022-11-13T14:04:46.133Z,101631.73
2022-11-13T14:09:49.274Z,101629.11
2022-11-13T14:14:52.180Z,101629.77
2022-11-13T14:20:00.961Z,101622.98
2022-11-13T14:25:05.360Z,101618.09
2022-11-13T14:30:28.232Z,101613.39
2022-11-13T14:35:31.624Z,101605.20
2022-11-13T14:40:35.885Z,101602.05
2022-11-13T14:45:39.100Z,101598.56
2022-11-13T14:51:06.574Z,101589.00
2022-11-13T14:56:12.001Z,101583.89
2022-11-13T15:01:20.856Z,101581.81
2022-11-13T15:06:34.235Z,101576.02
2022-11-13T15:11:40.515Z,101572.07
2022-11-13T15:16:48.230Z,101567.96
2022-11-13T15:22:25.774Z,101554.35
2022-11-13T15:27:16.612Z,101546.10
2022-11-13T15:32:19.471Z,101543.41
2022-11-13T15:37:22.377Z,101540.50
2022-11-13T15:42:29.992Z,101543.51
2022-11-13T15:47:36.014Z,101543.94
2022-11-13T15:52:41.845Z,101544.91
2022-11-13T15:57:44.750Z,101549.60
2022-11-13T16:02:50.929Z,101555.33
2022-11-13T16:07:54.533Z,101546.23
2022-11-13T16:12:57.660Z,101553.73
2022-11-13T16:18:01.933Z,101571.46
2022-11-13T16:23:04.798Z,101581.19
2022-11-13T16:28:16.424Z,101578.14
2022-11-13T16:33:19.718Z,101580.85
2022-11-13T16:38:22.513Z,101578.29
2022-11-13T16:43:25.446Z,101582.55
2022-11-13T16:48:28.738Z,101582.16
2022-11-13T16:53:31.905Z,101582.97
2022-11-13T16:58:34.964Z,101590.52
2022-11-13T17:03:37.865Z,101592.20
2022-11-13T17:08:40.767Z,101592.64
2022-11-13T17:13:43.874Z,101595.45
2022-11-13T17:18:52.160Z,101594.77
2022-11-13T17:24:01.153Z,101597.38
2022-11-13T17:29:05.900Z,101593.14
2022-11-13T17:34:08.909Z,101592.70
2022-11-13T17:39:12.014Z,101589.35
2022-11-13T17:44:14.917Z,101591.35
2022-11-13T17:49:18.231Z,101585.79
2022-11-13T17:54:21.136Z,101579.03
2022-11-13T17:59:24.467Z,101581.04
2022-11-13T18:04:27.252Z,101582.59
2022-11-13T18:09:30.363Z,101576.94
2022-11-13T18:14:33.265Z,101577.91
2022-11-13T18:19:36.169Z,101581.09
2022-11-13T18:24:39.128Z,101582.48
2022-11-13T18:29:43.386Z,101583.75
2022-11-13T18:34:46.323Z,101584.53
2022-11-13T18:39:49.202Z,101582.95
2022-11-13T18:44:52.127Z,101586.00
2022-11-13T18:49:55.030Z,101583.88
2022-11-13T18:54:57.933Z,101586.13
2022-11-13T19:00:00.938Z,101584.05
2022-11-13T19:05:04.049Z,101581.36
2022-11-13T19:10:07.910Z,101576.05
2022-11-13T19:15:10.778Z,101571.34
2022-11-13T19:20:13.785Z,101567.13
2022-11-13T19:25:16.791Z,101569.08
2022-11-13T19:30:20.178Z,101570.71
2022-11-13T19:35:25.467Z,101570.74
2022-11-13T19:40:28.680Z,101571.56
2022-11-13T19:45:32.200Z,101567.70
2022-11-13T19:50:35.101Z,101565.13
2022-11-13T19:55:38.112Z,101563.73
2022-11-13T20:00:41.217Z,101571.42
2022-11-13T20:05:44.429Z,101569.29
2022-11-13T20:10:47.943Z,101566.17
2022-11-13T20:15:54.922Z,101561.48
2022-11-13T20:20:57.855Z,101557.90
2022-11-13T20:26:03.686Z,101561.84
2022-11-13T20:31:08.475Z,101557.20
2022-11-13T20:36:11.582Z,101555.89
2022-11-13T20:41:14.473Z,101555.95
2022-11-13T20:46:19.439Z,101550.42
2022-11-13T20:51:27.771Z,101546.20
2022-11-13T20:56:30.676Z,101547.44
2022-11-13T21:01:36.718Z,101547.84
2022-11-13T21:06:39.699Z,101552.67
2022-11-13T21:11:42.970Z,101545.33
2022-11-13T21:16:45.874Z,101540.45
2022-11-13T21:21:48.780Z,101538.46
2022-11-13T21:26:51.687Z,101534.45
2022-11-13T21:31:54.591Z,101534.02
2022-11-13T21:36:58.010Z,101531.02
2022-11-13T21:42:00.911Z,101528.35
2022-11-13T21:47:03.812Z,101521.14
2022-11-13T21:52:06.718Z,101529.02
2022-11-13T21:57:09.621Z,101525.66
2022-11-13T22:02:12.701Z,101532.31
2022-11-13T22:07:16.103Z,101533.31
2022-11-13T22:12:20.113Z,101530.05
2022-11-13T22:17:23.011Z,101530.46
2022-11-13T22:22:25.985Z,101530.38
2022-11-13T22:27:29.532Z,101528.15
2022-11-13T22:32:32.543Z,101523.02
2022-11-13T22:37:35.413Z,101512.63
2022-11-13T22:42:38.245Z,101511.54
2022-11-13T22:47:41.123Z,101510.77
2022-11-13T22:52:44.023Z,101503.89
2022-11-13T22:57:46.932Z,101497.63
2022-11-13T23:02:49.935Z,101497.55
2022-11-13T23:07:53.388Z,101494.96
2022-11-13T23:12:56.254Z,101492.81
2022-11-13T23:17:59.160Z,101492.45
2022-11-13T23:23:02.072Z,101488.66
2022-11-13T23:28:05.275Z,101484.55
2022-11-13T23:33:08.282Z,101480.05
2022-11-13T23:38:11.499Z,101472.39
2022-11-13T23:43:14.399Z,101471.41
2022-11-13T23:48:17.888Z,101469.27
2022-11-13T23:53:20.831Z,101460.06
2022-11-13T23:58:23.685Z,101455.03
